createdAt,value
2019-01-23T00:00:37.375Z,99.80
2019-01-23T00:01:48.229Z,99.80
2019-01-23T00:02:54.840Z,99.70
2019-01-23T00:04:01.604Z,99.70
2019-01-23T00:05:08.421Z,99.60
2019-01-23T00:06:17.085Z,99.40
2019-01-23T00:07:24.415Z,99.40
2019-01-23T00:08:31.300Z,99.30
2019-01-23T00:09:37.552Z,99.30
2019-01-23T00:10:45.233Z,99.30
2019-01-23T00:11:55.457Z,99.60
2019-01-23T00:13:01.866Z,99.70
2019-01-23T00:14:08.662Z,99.80
2019-01-23T00:15:17.333Z,99.80
2019-01-23T00:16:23.841Z,99.60
2019-01-23T00:17:30.340Z,99.70
2019-01-23T00:18:36.894Z,99.60
2019-01-23T00:19:43.287Z,99.50
2019-01-23T00:20:49.664Z,99.50
2019-01-23T00:21:56.124Z,99.50
2019-01-23T00:23:02.389Z,99.60
2019-01-23T00:24:08.715Z,99.70
2019-01-23T00:25:15.760Z,99.70
2019-01-23T00:26:22.151Z,99.80
2019-01-23T00:27:28.601Z,99.70
2019-01-23T00:28:35.100Z,99.60
2019-01-23T00:29:41.560Z,99.70
2019-01-23T00:30:48.008Z,99.70
2019-01-23T00:31:54.399Z,99.60
2019-01-23T00:33:00.937Z,99.60
2019-01-23T00:34:07.344Z,99.60
2019-01-23T00:35:14.850Z,99.60
2019-01-23T00:36:21.389Z,99.70
2019-01-23T00:37:27.964Z,99.60
2019-01-23T00:38:34.343Z,99.50
2019-01-23T00:39:40.573Z,99.30
2019-01-23T00:40:46.881Z,99.40
2019-01-23T00:41:53.304Z,99.50
2019-01-23T00:42:59.869Z,99.60
2019-01-23T00:44:06.639Z,99.50
2019-01-23T00:45:17.050Z,99.40
2019-01-23T00:46:24.940Z,99.30
2019-01-23T00:47:32.519Z,99.30
2019-01-23T00:48:38.912Z,99.40
2019-01-23T00:49:45.590Z,99.40
2019-01-23T00:50:54.755Z,99.30
2019-01-23T00:52:01.181Z,99.40
2019-01-23T00:53:10.293Z,99.40
2019-01-23T00:54:16.568Z,99.40
2019-01-23T00:56:12.134Z,99.30
2019-01-23T00:57:34.468Z,99.20
2019-01-23T00:58:49.159Z,99.20
2019-01-23T01:00:00.731Z,99.20
2019-01-23T01:01:16.276Z,99.10
2019-01-23T01:02:25.017Z,98.90
2019-01-23T01:03:33.852Z,99.00
2019-01-23T01:04:46.306Z,99.00
2019-01-23T01:05:53.179Z,98.70
2019-01-23T01:07:18.178Z,98.90
2019-01-23T01:08:32.624Z,98.80
2019-01-23T01:10:13.418Z,98.90
2019-01-23T01:11:29.523Z,98.90
2019-01-23T01:13:01.704Z,98.80
2019-01-23T01:14:11.950Z,98.80
2019-01-23T01:15:44.730Z,98.90
2019-01-23T01:17:03.124Z,98.90
2019-01-23T01:18:37.031Z,98.70
2019-01-23T01:19:49.383Z,98.90
2019-01-23T01:20:58.119Z,98.90
2019-01-23T01:22:22.083Z,98.90
2019-01-23T01:24:07.029Z,98.80
2019-01-23T01:25:45.701Z,98.70
2019-01-23T01:28:00.452Z,98.90
2019-01-23T01:29:08.255Z,98.90
2019-01-23T01:30:19.584Z,98.70
2019-01-23T01:31:25.952Z,98.50
2019-01-23T01:32:34.834Z,98.60
2019-01-23T01:33:41.152Z,98.70
2019-01-23T01:34:47.542Z,98.70
2019-01-23T01:35:53.883Z,98.50
2019-01-23T01:37:02.687Z,98.50
2019-01-23T01:38:09.053Z,98.60
2019-01-23T01:39:15.311Z,98.60
2019-01-23T01:40:21.864Z,99.00
2019-01-23T01:41:28.302Z,98.50
2019-01-23T01:42:34.661Z,98.30
2019-01-23T01:43:41.126Z,98.50
2019-01-23T01:44:47.510Z,98.50
2019-01-23T01:45:53.924Z,98.50
2019-01-23T01:47:00.663Z,98.50
2019-01-23T01:48:08.040Z,98.30
2019-01-23T01:49:15.380Z,98.30
2019-01-23T01:50:22.504Z,98.40
2019-01-23T01:51:28.955Z,98.20
2019-01-23T01:52:35.289Z,98.00
2019-01-23T01:53:41.715Z,98.10
2019-01-23T01:54:48.163Z,98.00
2019-01-23T01:55:54.522Z,97.80
2019-01-23T01:57:00.806Z,97.90
2019-01-23T01:58:10.179Z,97.80
2019-01-23T01:59:15.171Z,98.10
2019-01-23T02:00:23.414Z,97.90
2019-01-23T02:01:29.692Z,97.90
2019-01-23T02:02:38.809Z,98.00
2019-01-23T02:03:45.277Z,98.00
2019-01-23T02:04:51.705Z,97.50
2019-01-23T02:06:02.613Z,97.60
2019-01-23T02:07:11.235Z,97.80
2019-01-23T02:08:17.756Z,98.00
2019-01-23T02:09:24.719Z,97.80
2019-01-23T02:10:31.142Z,97.60
2019-01-23T02:11:37.597Z,97.40
2019-01-23T02:12:44.500Z,97.30
2019-01-23T02:13:52.459Z,97.30
2019-01-23T02:14:58.835Z,97.30
2019-01-23T02:16:05.384Z,97.20
2019-01-23T02:17:12.035Z,97.20
2019-01-23T02:18:18.344Z,97.20
2019-01-23T02:19:24.796Z,97.10
2019-01-23T02:20:31.235Z,97.20
2019-01-23T02:21:38.023Z,97.00
2019-01-23T02:22:46.417Z,96.80
2019-01-23T02:23:52.804Z,96.80
2019-01-23T02:24:59.221Z,96.90
2019-01-23T02:26:05.619Z,97.00
2019-01-23T02:27:12.181Z,97.10
2019-01-23T02:28:18.623Z,97.00
2019-01-23T02:29:25.006Z,96.80
2019-01-23T02:30:32.514Z,96.60
2019-01-23T02:31:38.944Z,96.60
2019-01-23T02:32:47.384Z,96.60
2019-01-23T02:33:53.810Z,96.90
2019-01-23T02:35:00.340Z,96.80
2019-01-23T02:36:07.528Z,96.90
2019-01-23T02:37:13.944Z,96.90
2019-01-23T02:38:20.321Z,97.00
2019-01-23T02:39:26.909Z,96.70
2019-01-23T02:40:33.297Z,97.00
2019-01-23T02:41:39.643Z,96.70
2019-01-23T02:42:49.063Z,96.50
2019-01-23T02:43:55.602Z,96.60
2019-01-23T02:45:02.033Z,96.70
2019-01-23T02:46:08.535Z,96.60
2019-01-23T02:47:14.982Z,96.50
2019-01-23T02:48:24.613Z,96.20
2019-01-23T02:49:31.503Z,96.40
2019-01-23T02:50:38.035Z,96.50
2019-01-23T02:51:44.157Z,96.60
2019-01-23T02:52:53.033Z,96.30
2019-01-23T02:54:03.003Z,96.50
2019-01-23T02:55:44.983Z,96.20
2019-01-23T02:56:51.112Z,96.20
2019-01-23T02:58:15.046Z,96.00
2019-01-23T02:59:44.903Z,96.20
2019-01-23T03:00:55.465Z,96.20
2019-01-23T03:02:06.563Z,96.30
2019-01-23T03:03:20.907Z,96.40
2019-01-23T03:04:45.946Z,96.50
2019-01-23T03:05:55.175Z,96.40
2019-01-23T03:07:24.283Z,96.40
2019-01-23T03:09:19.575Z,96.10
2019-01-23T03:10:36.703Z,96.10
2019-01-23T03:11:56.126Z,96.20
2019-01-23T03:13:05.423Z,96.00
2019-01-23T03:14:18.191Z,95.70
2019-01-23T03:15:26.146Z,95.90
2019-01-23T03:16:32.900Z,96.00
2019-01-23T03:17:40.583Z,96.10
2019-01-23T03:19:24.350Z,96.10
2019-01-23T03:20:51.394Z,96.10
2019-01-23T03:22:01.750Z,96.30
2019-01-23T03:23:56.364Z,96.20
2019-01-23T03:25:34.949Z,96.10
2019-01-23T03:27:09.168Z,95.80
2019-01-23T03:28:24.876Z,95.60
2019-01-23T03:29:45.694Z,95.90
2019-01-23T03:31:16.902Z,96.10
2019-01-23T03:32:44.188Z,96.10
2019-01-23T03:33:54.655Z,95.90
2019-01-23T03:35:18.590Z,96.10
2019-01-23T03:37:03.816Z,96.20
2019-01-23T03:38:32.476Z,96.20
2019-01-23T03:41:12.105Z,95.80
2019-01-23T03:44:35.047Z,96.10
2019-01-23T03:46:00.884Z,96.00
2019-01-23T03:47:31.250Z,96.10
2019-01-23T03:49:00.359Z,96.20
2019-01-23T03:50:22.751Z,95.90
2019-01-23T03:52:05.164Z,96.10
2019-01-23T03:53:37.888Z,96.20
2019-01-23T03:55:09.163Z,95.80
2019-01-23T03:57:36.635Z,95.90
2019-01-23T03:59:15.224Z,96.00
2019-01-23T04:00:50.222Z,96.20
2019-01-23T04:02:16.427Z,96.40
2019-01-23T04:03:33.315Z,96.20
2019-01-23T04:05:11.795Z,96.20
2019-01-23T04:06:42.312Z,96.10
2019-01-23T04:08:27.452Z,96.10
2019-01-23T04:09:42.458Z,96.00
2019-01-23T04:10:50.490Z,96.00
2019-01-23T04:11:56.819Z,96.10
2019-01-23T04:13:04.693Z,96.20
2019-01-23T04:14:12.869Z,96.10
2019-01-23T04:15:19.541Z,96.00
2019-01-23T04:16:25.975Z,95.80
2019-01-23T04:17:41.365Z,96.10
2019-01-23T04:18:56.236Z,96.10
2019-01-23T04:20:04.422Z,96.00
2019-01-23T04:21:14.727Z,96.20
2019-01-23T04:22:21.119Z,96.00
2019-01-23T04:23:29.520Z,96.00
2019-01-23T04:24:35.923Z,96.10
2019-01-23T04:25:46.137Z,96.20
2019-01-23T04:26:53.713Z,96.10
2019-01-23T04:28:02.390Z,96.20
2019-01-23T04:29:08.812Z,96.20
2019-01-23T04:30:25.149Z,96.20
2019-01-23T04:31:37.694Z,96.10
2019-01-23T04:32:44.183Z,96.30
2019-01-23T04:33:52.982Z,96.20
2019-01-23T04:34:59.390Z,96.20
2019-01-23T04:36:05.736Z,96.10
2019-01-23T04:37:12.153Z,95.70
2019-01-23T04:38:18.477Z,95.90
2019-01-23T04:39:47.344Z,96.10
2019-01-23T04:40:59.445Z,95.90
2019-01-23T04:42:37.757Z,96.00
2019-01-23T04:43:46.717Z,95.90
2019-01-23T04:44:55.734Z,96.00
2019-01-23T04:46:05.485Z,96.00
2019-01-23T04:47:13.083Z,96.30
2019-01-23T04:48:47.587Z,95.90
2019-01-23T04:50:01.559Z,95.80
2019-01-23T04:52:24.914Z,95.70
2019-01-23T04:54:05.373Z,95.80
2019-01-23T04:55:52.357Z,95.70
2019-01-23T04:57:31.241Z,96.00
2019-01-23T04:58:49.901Z,96.10
2019-01-23T05:00:31.466Z,96.20
2019-01-23T05:01:58.764Z,96.00
2019-01-23T05:03:10.436Z,96.00
2019-01-23T05:04:19.734Z,96.00
2019-01-23T05:05:43.121Z,96.00
2019-01-23T05:06:49.541Z,96.00
2019-01-23T05:07:56.076Z,96.10
2019-01-23T05:09:08.932Z,96.20
2019-01-23T05:10:17.433Z,96.30
2019-01-23T05:11:26.817Z,96.20
2019-01-23T05:12:44.535Z,96.10
2019-01-23T05:13:57.143Z,96.00
2019-01-23T05:15:08.761Z,95.80
2019-01-23T05:16:17.802Z,95.90
2019-01-23T05:17:24.252Z,95.80
2019-01-23T05:18:30.695Z,95.90
2019-01-23T05:19:50.883Z,95.80
2019-01-23T05:21:29.542Z,96.00
2019-01-23T05:22:46.133Z,96.00
2019-01-23T05:25:33.181Z,96.10
2019-01-23T05:28:07.700Z,96.30
2019-01-23T05:29:17.008Z,96.30
2019-01-23T05:30:25.080Z,96.20
2019-01-23T05:31:32.325Z,96.20
2019-01-23T05:32:38.783Z,96.20
2019-01-23T05:34:01.709Z,96.20
2019-01-23T05:35:13.922Z,96.20
2019-01-23T05:36:21.345Z,95.90
2019-01-23T05:37:28.794Z,95.80
2019-01-23T05:38:35.952Z,96.00
2019-01-23T05:39:44.848Z,96.20
2019-01-23T05:40:55.828Z,96.30
2019-01-23T05:42:03.560Z,96.40
2019-01-23T05:45:38.901Z,96.30
2019-01-23T05:46:48.352Z,96.20
2019-01-23T05:47:57.422Z,96.10
2019-01-23T05:49:03.836Z,96.20
2019-01-23T05:50:13.966Z,96.20
2019-01-23T05:51:20.633Z,96.10
2019-01-23T05:52:30.284Z,96.10
2019-01-23T05:53:37.392Z,96.00
2019-01-23T05:54:44.573Z,96.00
2019-01-23T05:55:51.242Z,96.00
2019-01-23T05:57:00.146Z,96.10
2019-01-23T05:58:06.619Z,96.00
2019-01-23T05:59:13.123Z,96.20
2019-01-23T06:00:21.994Z,96.30
2019-01-23T06:01:29.583Z,96.10
2019-01-23T06:02:47.846Z,96.10
2019-01-23T06:03:55.769Z,96.50
2019-01-23T06:05:05.972Z,96.20
2019-01-23T06:06:12.885Z,96.20
2019-01-23T06:07:21.553Z,96.20
2019-01-23T06:08:32.623Z,96.20
2019-01-23T06:09:45.879Z,96.20
2019-01-23T06:10:53.778Z,96.30
2019-01-23T06:12:00.311Z,96.20
2019-01-23T06:13:10.538Z,96.20
2019-01-23T06:14:20.228Z,96.00
2019-01-23T06:15:26.590Z,95.90
2019-01-23T06:16:33.086Z,96.10
2019-01-23T06:17:46.524Z,96.40
2019-01-23T06:18:53.415Z,96.30
2019-01-23T06:20:03.717Z,96.30
2019-01-23T06:21:33.474Z,96.20
2019-01-23T06:22:48.578Z,96.20
2019-01-23T06:24:01.941Z,96.20
2019-01-23T06:25:12.462Z,96.10
2019-01-23T06:26:22.046Z,96.10
2019-01-23T06:27:37.458Z,95.90
2019-01-23T06:29:23.252Z,96.00
2019-01-23T06:30:30.426Z,96.10
2019-01-23T06:31:44.472Z,96.10
2019-01-23T06:33:15.587Z,95.90
2019-01-23T06:34:26.198Z,96.00
2019-01-23T06:35:37.253Z,96.00
2019-01-23T06:37:08.243Z,96.00
2019-01-23T06:38:39.822Z,96.00
2019-01-23T06:39:47.593Z,96.20
2019-01-23T06:40:55.553Z,96.10
2019-01-23T06:42:05.006Z,96.10
2019-01-23T06:43:13.137Z,95.90
2019-01-23T06:44:27.365Z,96.10
2019-01-23T06:45:39.429Z,96.10
2019-01-23T06:46:46.858Z,96.10
2019-01-23T06:48:02.568Z,96.10
2019-01-23T06:49:10.164Z,95.90
2019-01-23T06:50:20.476Z,96.20
2019-01-23T06:51:30.368Z,96.20
2019-01-23T06:53:04.478Z,96.30
2019-01-23T06:54:13.158Z,96.30
2019-01-23T06:55:21.431Z,96.30
2019-01-23T06:56:43.578Z,96.30
2019-01-23T06:58:00.762Z,96.20
2019-01-23T06:59:47.634Z,96.20
2019-01-23T07:01:02.669Z,96.40
2019-01-23T09:53:36.038Z,92.40
2019-01-23T09:54:42.666Z,92.50
2019-01-23T09:55:49.131Z,92.50
2019-01-23T09:56:57.145Z,92.30
2019-01-23T09:58:11.337Z,92.10
2019-01-23T09:59:49.541Z,92.30
2019-01-23T10:01:01.798Z,92.60
2019-01-23T10:02:13.022Z,92.50
2019-01-23T10:03:38.095Z,92.50
2019-01-23T10:05:09.204Z,92.30
2019-01-23T10:06:25.312Z,92.40
2019-01-23T10:07:35.723Z,92.60
2019-01-23T10:09:16.607Z,92.50
2019-01-23T10:10:51.993Z,92.20
2019-01-23T10:12:20.295Z,92.40
2019-01-23T10:13:33.436Z,92.00
2019-01-23T10:15:01.664Z,92.30
2019-01-23T10:18:28.030Z,92.10
2019-01-23T10:19:48.595Z,92.30
2019-01-23T10:21:03.702Z,92.40
2019-01-23T10:22:13.583Z,92.50
2019-01-23T10:23:35.153Z,92.20
2019-01-23T10:25:13.554Z,92.50
2019-01-23T10:26:35.332Z,91.90
2019-01-23T10:27:53.627Z,92.00
2019-01-23T10:29:01.181Z,92.20
2019-01-23T10:30:50.573Z,91.80
2019-01-23T10:32:04.869Z,91.50
2019-01-23T10:33:30.765Z,91.50
2019-01-23T10:34:43.664Z,91.40
2019-01-23T10:35:53.011Z,91.30
2019-01-23T10:37:07.257Z,91.20
2019-01-23T10:38:35.475Z,91.40
2019-01-23T10:39:50.588Z,91.20
2019-01-23T10:41:10.593Z,91.20
2019-01-23T10:42:29.436Z,91.10
2019-01-23T10:43:38.637Z,91.20
2019-01-23T10:45:25.127Z,91.20
2019-01-23T10:46:36.258Z,91.30
2019-01-23T10:47:56.005Z,91.30
2019-01-23T10:49:00.143Z,91.30
2019-01-23T10:50:12.575Z,91.30
2019-01-23T10:51:23.343Z,91.30
2019-01-23T10:52:31.589Z,91.30
2019-01-23T10:54:00.515Z,91.50
2019-01-23T10:55:07.269Z,91.80
2019-01-23T10:56:28.760Z,91.40
2019-01-23T10:57:43.087Z,91.50
2019-01-23T10:59:02.335Z,91.50
2019-01-23T11:00:43.678Z,91.50
2019-01-23T11:01:57.758Z,91.50
2019-01-23T11:03:25.178Z,91.50
2019-01-23T11:04:31.740Z,91.40
2019-01-23T11:05:41.951Z,91.50
2019-01-23T11:06:58.806Z,91.50
2019-01-23T11:08:10.225Z,91.30
2019-01-23T11:09:20.559Z,91.60
2019-01-23T11:10:48.078Z,91.70
2019-01-23T11:12:36.851Z,91.70
2019-01-23T11:13:47.270Z,91.50
2019-01-23T11:15:27.261Z,91.70
2019-01-23T11:17:05.921Z,91.70
2019-01-23T11:18:14.739Z,91.40
2019-01-23T11:19:45.151Z,91.80
2019-01-23T11:22:40.602Z,91.60
2019-01-23T11:23:54.519Z,91.80
2019-01-23T11:25:23.293Z,91.50
2019-01-23T11:26:54.360Z,91.40
2019-01-23T11:28:12.133Z,91.30
2019-01-23T11:29:30.638Z,91.30
2019-01-23T11:30:37.158Z,91.60
2019-01-23T11:31:51.346Z,91.70
2019-01-23T11:32:55.859Z,91.70
2019-01-23T11:34:21.240Z,91.50
2019-01-23T11:36:07.992Z,91.50
2019-01-23T11:37:15.857Z,91.50
2019-01-23T11:38:29.227Z,91.70
2019-01-23T11:39:38.112Z,91.60
2019-01-23T11:40:50.832Z,91.50
2019-01-23T11:42:14.820Z,91.20
2019-01-23T11:43:19.814Z,91.30
2019-01-23T11:44:29.351Z,91.00
2019-01-23T11:45:48.359Z,90.70
2019-01-23T11:47:38.587Z,90.70
2019-01-23T11:48:52.105Z,91.00
2019-01-23T11:50:01.470Z,90.80
2019-01-23T11:51:11.823Z,90.90
2019-01-23T11:52:27.042Z,90.70
2019-01-23T11:53:33.744Z,90.80
2019-01-23T11:54:40.278Z,90.90
2019-01-23T11:55:46.724Z,90.80
2019-01-23T11:56:53.170Z,91.00
2019-01-23T11:58:10.510Z,91.10
2019-01-23T11:59:17.527Z,90.30
2019-01-23T12:00:25.554Z,90.30
2019-01-23T12:01:32.479Z,90.10
2019-01-23T12:02:40.575Z,90.10
2019-01-23T12:03:47.065Z,90.40
2019-01-23T12:04:53.588Z,90.10
2019-01-23T12:06:00.066Z,90.50
2019-01-23T12:07:06.818Z,90.10
2019-01-23T12:08:13.391Z,89.90
2019-01-23T12:09:20.747Z,90.20
2019-01-23T12:10:27.241Z,90.20
2019-01-23T12:11:34.177Z,90.00
2019-01-23T12:12:41.920Z,90.20
2019-01-23T12:13:48.304Z,90.70
2019-01-23T12:14:54.730Z,90.50
2019-01-23T12:16:01.028Z,90.30
2019-01-23T12:17:07.461Z,90.20
2019-01-23T12:18:14.150Z,89.80
2019-01-23T12:19:20.610Z,89.90
2019-01-23T12:20:27.932Z,89.50
2019-01-23T12:21:34.438Z,88.70
2019-01-23T12:22:40.998Z,89.20
2019-01-23T12:23:48.702Z,89.20
2019-01-23T12:24:55.618Z,88.60
2019-01-23T12:26:02.245Z,88.30
2019-01-23T12:27:08.828Z,88.10
2019-01-23T12:28:15.253Z,88.60
2019-01-23T12:29:21.803Z,88.30
2019-01-23T12:30:30.678Z,88.40
2019-01-23T12:31:38.198Z,88.80
2019-01-23T12:32:44.709Z,87.70
2019-01-23T12:33:51.011Z,87.90
2019-01-23T12:34:57.386Z,87.70
2019-01-23T12:36:03.800Z,87.80
2019-01-23T12:37:10.218Z,87.70
2019-01-23T12:38:16.679Z,88.00
2019-01-23T12:39:23.542Z,88.30
2019-01-23T12:40:30.005Z,88.80
2019-01-23T12:41:36.573Z,87.60
2019-01-23T12:42:43.027Z,87.50
2019-01-23T12:43:49.540Z,87.80
2019-01-23T12:44:56.042Z,88.30
2019-01-23T12:46:02.815Z,88.00
2019-01-23T12:47:09.244Z,87.90
2019-01-23T12:48:15.620Z,87.80
2019-01-23T12:49:22.199Z,88.90
2019-01-23T12:50:31.309Z,88.00
2019-01-23T12:51:37.758Z,88.40
2019-01-23T12:52:44.218Z,88.70
2019-01-23T12:53:50.829Z,89.10
2019-01-23T12:54:57.318Z,89.50
2019-01-23T12:56:03.711Z,89.60
2019-01-23T12:57:10.248Z,89.50
2019-01-23T12:58:16.601Z,90.00
2019-01-23T12:59:23.724Z,89.20
2019-01-23T13:00:32.205Z,88.40
2019-01-23T13:01:42.139Z,88.20
2019-01-23T13:02:46.900Z,88.50
2019-01-23T13:03:53.354Z,89.10
2019-01-23T13:04:59.786Z,89.40
2019-01-23T13:06:08.822Z,88.20
2019-01-23T13:07:15.277Z,88.30
2019-01-23T13:08:21.874Z,88.60
2019-01-23T13:09:28.474Z,88.50
2019-01-23T13:10:34.861Z,88.30
2019-01-23T13:11:41.388Z,88.40
2019-01-23T13:12:47.863Z,88.50
2019-01-23T13:13:54.300Z,88.10
2019-01-23T13:15:00.974Z,88.60
2019-01-23T13:16:07.820Z,88.30
2019-01-23T13:17:14.480Z,88.50
2019-01-23T13:18:22.019Z,87.90
2019-01-23T13:19:28.394Z,87.10
2019-01-23T13:20:34.791Z,87.60
2019-01-23T13:21:41.543Z,88.00
2019-01-23T13:22:48.085Z,88.20
2019-01-23T13:23:56.205Z,88.00
2019-01-23T13:25:03.102Z,88.10
2019-01-23T13:26:09.751Z,88.50
2019-01-23T13:27:16.480Z,88.50
2019-01-23T13:28:22.935Z,88.80
2019-01-23T13:29:29.350Z,89.30
2019-01-23T13:30:35.780Z,88.60
2019-01-23T13:31:48.818Z,88.70
2019-01-23T13:32:50.343Z,87.60
2019-01-23T13:33:56.780Z,88.00
2019-01-23T13:35:03.145Z,88.20
2019-01-23T13:36:10.749Z,88.90
2019-01-23T13:37:17.185Z,88.40
2019-01-23T13:38:23.590Z,88.30
2019-01-23T13:39:30.093Z,88.20
2019-01-23T13:40:37.935Z,87.80
2019-01-23T13:41:44.349Z,88.10
2019-01-23T13:42:50.902Z,88.30
2019-01-23T13:43:57.405Z,88.20
2019-01-23T13:45:03.846Z,88.20
2019-01-23T13:46:10.300Z,88.40
2019-01-23T13:47:16.906Z,88.00
2019-01-23T13:48:23.412Z,88.20
2019-01-23T13:49:32.325Z,88.20
2019-01-23T13:50:38.882Z,87.70
2019-01-23T13:51:45.836Z,86.90
2019-01-23T13:52:52.312Z,86.60
2019-01-23T13:53:58.621Z,86.20
2019-01-23T13:55:06.374Z,86.30
2019-01-23T13:56:12.893Z,86.80
2019-01-23T13:57:19.485Z,86.40
2019-01-23T13:58:26.009Z,87.20
2019-01-23T13:59:32.643Z,87.70
2019-01-23T14:00:41.360Z,87.70
2019-01-23T14:01:48.788Z,87.40
2019-01-23T14:02:56.254Z,87.30
2019-01-23T14:04:02.829Z,87.80
2019-01-23T14:05:11.509Z,87.20
2019-01-23T14:06:17.991Z,88.10
2019-01-23T14:07:24.338Z,87.00
2019-01-23T14:08:31.587Z,87.10
2019-01-23T14:09:38.355Z,87.90
2019-01-23T14:10:45.137Z,87.80
2019-01-23T14:11:51.937Z,87.20
2019-01-23T14:12:58.424Z,86.80
2019-01-23T14:14:05.278Z,87.00
2019-01-23T14:15:15.905Z,87.00
2019-01-23T14:16:22.868Z,87.40
2019-01-23T14:17:29.592Z,87.00
2019-01-23T14:18:36.196Z,86.70
2019-01-23T14:19:43.382Z,86.50
2019-01-23T14:20:49.987Z,85.80
2019-01-23T14:21:57.434Z,86.20
2019-01-23T14:23:04.215Z,86.50
2019-01-23T14:24:10.824Z,86.50
2019-01-23T14:25:17.526Z,86.10
2019-01-23T14:26:25.565Z,85.60
2019-01-23T14:27:32.102Z,85.70
2019-01-23T14:28:39.067Z,86.10
2019-01-23T14:29:46.386Z,85.80
2019-01-23T14:30:54.530Z,86.00
2019-01-23T14:32:03.564Z,86.80
2019-01-23T14:33:09.448Z,87.40
2019-01-23T14:34:16.000Z,87.50
2019-01-23T14:35:23.090Z,87.00
2019-01-23T14:36:29.856Z,86.20
2019-01-23T14:37:37.373Z,86.30
2019-01-23T14:38:44.238Z,86.90
2019-01-23T14:39:51.194Z,87.40
2019-01-23T14:40:58.373Z,87.80
2019-01-23T14:42:06.449Z,87.20
2019-01-23T14:43:13.575Z,87.50
2019-01-23T14:44:19.947Z,88.10
2019-01-23T14:45:26.348Z,88.10
2019-01-23T14:46:32.976Z,87.70
2019-01-23T14:47:39.322Z,88.10
2019-01-23T14:48:46.435Z,88.60
2019-01-23T14:49:54.362Z,88.10
2019-01-23T14:51:01.829Z,87.20
2019-01-23T14:52:10.306Z,86.60
2019-01-23T14:53:17.886Z,86.50
2019-01-23T14:54:24.545Z,86.60
2019-01-23T14:55:31.835Z,86.50
2019-01-23T14:56:38.643Z,86.30
2019-01-23T14:57:47.419Z,86.80
2019-01-23T14:58:54.436Z,86.00
2019-01-23T15:00:01.715Z,86.30
2019-01-23T15:01:08.410Z,87.00
2019-01-23T15:02:14.814Z,86.70
2019-01-23T15:03:21.240Z,87.30
2019-01-23T15:04:28.873Z,87.00
2019-01-23T15:05:36.155Z,87.10
2019-01-23T15:06:42.676Z,87.00
2019-01-23T15:07:50.325Z,87.10
2019-01-23T15:08:57.158Z,87.30
2019-01-23T15:10:03.706Z,87.10
2019-01-23T15:11:10.054Z,86.60
2019-01-23T15:12:17.883Z,86.90
2019-01-23T15:13:24.564Z,87.00
2019-01-23T15:14:41.882Z,86.80
2019-01-23T15:15:49.702Z,86.80
2019-01-23T15:17:00.046Z,87.50
2019-01-23T15:18:17.119Z,87.80
2019-01-23T15:19:23.494Z,88.50
2019-01-23T15:20:36.383Z,87.90
2019-01-23T15:21:43.877Z,87.60
2019-01-23T15:22:50.658Z,87.60
2019-01-23T15:23:57.163Z,88.30
2019-01-23T15:25:07.913Z,88.70
2019-01-23T15:26:15.634Z,88.80
2019-01-23T15:27:22.167Z,89.00
2019-01-23T15:28:29.957Z,88.40
2019-01-23T15:29:36.402Z,88.90
2019-01-23T15:30:44.026Z,88.60
2019-01-23T15:31:50.529Z,88.80
2019-01-23T15:32:57.111Z,89.00
2019-01-23T15:34:03.564Z,89.20
2019-01-23T15:35:10.292Z,89.60
2019-01-23T15:36:16.736Z,89.60
2019-01-23T15:37:23.383Z,89.50
2019-01-23T15:38:29.826Z,89.90
2019-01-23T15:39:36.460Z,89.80
2019-01-23T15:40:42.955Z,89.90
2019-01-23T15:41:49.411Z,90.00
2019-01-23T15:42:55.811Z,89.90
2019-01-23T15:44:03.378Z,90.00
2019-01-23T15:45:10.494Z,90.00
2019-01-23T15:46:16.955Z,90.00
2019-01-23T15:47:23.496Z,90.20
2019-01-23T15:48:30.002Z,90.20
2019-01-23T15:49:37.247Z,90.30
2019-01-23T15:50:43.737Z,90.40
2019-01-23T15:51:50.097Z,90.20
2019-01-23T15:52:56.691Z,90.20
2019-01-23T15:54:03.227Z,90.40
2019-01-23T15:55:12.370Z,90.40
2019-01-23T15:56:18.905Z,90.30
2019-01-23T15:57:25.426Z,90.40
2019-01-23T15:58:31.836Z,90.50
2019-01-23T15:59:38.527Z,90.40
2019-01-23T16:00:45.340Z,90.60
2019-01-23T16:01:51.996Z,90.60
2019-01-23T16:02:58.576Z,90.60
2019-01-23T16:04:05.759Z,90.70
2019-01-23T16:05:13.453Z,90.70
2019-01-23T16:06:20.455Z,90.80
2019-01-23T16:07:27.457Z,91.00
2019-01-23T16:08:34.644Z,91.00
2019-01-23T16:09:41.120Z,91.10
2019-01-23T16:10:47.817Z,91.20
2019-01-23T16:11:54.994Z,91.30
2019-01-23T16:13:02.998Z,91.30
2019-01-23T16:14:12.013Z,91.30
2019-01-23T16:15:21.065Z,91.60
2019-01-23T16:16:28.731Z,91.30
2019-01-23T16:17:36.275Z,91.50
2019-01-23T16:18:42.708Z,91.60
2019-01-23T16:19:49.833Z,91.50
2019-01-23T16:20:56.509Z,91.50
2019-01-23T16:22:02.953Z,91.70
2019-01-23T16:23:09.490Z,91.80
2019-01-23T16:24:16.742Z,91.90
2019-01-23T16:25:23.295Z,91.90
2019-01-23T16:26:30.230Z,91.80
2019-01-23T16:27:37.016Z,92.00
2019-01-23T16:28:43.731Z,91.90
2019-01-23T16:29:50.283Z,91.80
2019-01-23T16:30:57.109Z,92.00
2019-01-23T16:32:03.686Z,91.90
2019-01-23T16:33:10.887Z,92.00
2019-01-23T16:34:17.837Z,92.10
2019-01-23T16:35:24.659Z,91.90
2019-01-23T16:36:31.321Z,92.00
2019-01-23T16:37:37.962Z,92.10
2019-01-23T16:38:44.430Z,91.90
2019-01-23T16:39:51.958Z,91.70
2019-01-23T16:40:58.501Z,91.50
2019-01-23T16:42:05.050Z,91.60
2019-01-23T16:43:11.514Z,91.30
2019-01-23T16:44:18.239Z,91.30
2019-01-23T16:45:26.302Z,91.50
2019-01-23T16:46:33.660Z,91.50
2019-01-23T16:47:40.185Z,91.50
2019-01-23T16:48:46.704Z,91.40
2019-01-23T16:49:53.290Z,91.40
2019-01-23T16:50:59.846Z,91.30
2019-01-23T16:52:07.923Z,91.30
2019-01-23T16:53:14.561Z,91.30
2019-01-23T16:54:22.188Z,91.10
2019-01-23T16:55:28.957Z,91.20
2019-01-23T16:56:35.715Z,91.30
2019-01-23T16:57:42.726Z,91.30
2019-01-23T16:58:49.446Z,91.30
2019-01-23T16:59:56.382Z,91.30
2019-01-23T17:01:03.462Z,91.10
2019-01-23T17:02:10.718Z,91.40
2019-01-23T17:03:17.637Z,91.20
2019-01-23T17:04:24.822Z,91.10
2019-01-23T17:05:35.143Z,91.10
2019-01-23T17:06:42.500Z,91.10
2019-01-23T17:07:50.048Z,91.30
2019-01-23T17:08:57.964Z,91.30
2019-01-23T17:10:05.133Z,91.20
2019-01-23T17:11:13.375Z,91.20
2019-01-23T17:12:20.874Z,91.40
2019-01-23T17:13:28.282Z,91.60
2019-01-23T17:14:35.549Z,91.90
2019-01-23T17:15:43.301Z,91.60
2019-01-23T17:16:50.833Z,91.60
2019-01-23T17:17:58.187Z,91.60
2019-01-23T17:19:06.763Z,91.60
2019-01-23T17:20:18.358Z,91.60
2019-01-23T17:21:34.316Z,91.50
2019-01-23T17:22:52.221Z,91.70
2019-01-23T17:24:00.480Z,91.70
2019-01-23T17:25:08.355Z,91.60
2019-01-23T17:26:15.446Z,91.60
2019-01-23T17:27:22.112Z,91.50
2019-01-23T17:28:29.696Z,91.40
2019-01-23T17:29:37.432Z,91.20
2019-01-23T17:30:45.316Z,91.20
2019-01-23T17:31:55.496Z,91.90
2019-01-23T17:33:03.718Z,91.50
2019-01-23T17:34:17.109Z,91.60
2019-01-23T17:35:26.918Z,91.50
2019-01-23T17:36:41.020Z,91.40
2019-01-23T17:37:50.869Z,91.60
2019-01-23T17:38:58.232Z,91.70
2019-01-23T17:40:06.299Z,91.80
2019-01-23T17:41:16.758Z,92.00
2019-01-23T17:42:23.890Z,92.20
2019-01-23T17:43:31.246Z,92.10
2019-01-23T17:44:38.064Z,92.00
2019-01-23T17:45:48.262Z,92.10
2019-01-23T17:46:55.241Z,91.80
2019-01-23T17:48:11.535Z,91.90
2019-01-23T17:49:28.189Z,91.90
2019-01-23T17:50:36.593Z,92.10
2019-01-23T17:51:43.434Z,92.10
2019-01-23T17:52:50.720Z,91.90
2019-01-23T17:53:58.462Z,92.10
2019-01-23T17:55:08.027Z,92.10
2019-01-23T17:56:14.905Z,92.10
2019-01-23T17:57:21.880Z,92.30
2019-01-23T17:58:28.910Z,92.50
2019-01-23T17:59:35.870Z,92.40
2019-01-23T18:00:48.678Z,92.20
2019-01-23T18:01:55.686Z,92.30
2019-01-23T18:03:21.281Z,92.40
2019-01-23T18:04:28.098Z,92.40
2019-01-23T18:05:35.063Z,92.20
2019-01-23T18:06:41.995Z,92.20
2019-01-23T18:07:49.065Z,92.20
2019-01-23T18:08:59.629Z,92.40
2019-01-23T18:10:07.393Z,92.30
2019-01-23T18:11:14.287Z,92.40
2019-01-23T18:12:22.212Z,92.40
2019-01-23T18:13:29.249Z,92.50
2019-01-23T18:14:36.114Z,92.40
2019-01-23T18:15:42.958Z,92.40
2019-01-23T18:16:49.928Z,92.50
2019-01-23T18:17:56.816Z,92.60
2019-01-23T18:19:03.566Z,92.80
2019-01-23T18:20:16.717Z,92.70
2019-01-23T18:21:23.638Z,92.70
2019-01-23T18:22:30.564Z,92.60
2019-01-23T18:23:37.424Z,92.60
2019-01-23T18:24:44.251Z,92.70
2019-01-23T18:25:51.286Z,92.70